NY Terminal Aviation Weather Discussion (AFD) - Prepared: ISSUED BY NATIONAL WEATHER SERVICE MOUNT HOLLY NJ
VFR THROUGH THE TAF PERIOD.

THIS AFTERNOON...PATCH OF MID LEVEL CLOUDS APPROACHING NYC AREA IS 
DISSIPATING SO JUST EXPECTING MAINLY SCATTERED CUMULUS CLOUDS.
SUSTAINED WEST WINDS SHOULD AVERAGE 15 TO 20 KNOTS. NOT AS CONFIDENT
ABOUT PEAK WIND GUSTS AS SOUNDINGS ARE SHOWING HIGHER GUST POTENTIAL 
THAN HAS BEEN REALIZED SO FAR TODAY. WE NUDGED PEAK GUSTS DOWN 
SLIGHTLY FROM THE 15Z UPDATES.

TONIGHT...POSSIBLY ISOLATED RESIDUAL MID LEVEL CLOUDINESS FROM 
UPSTATE NEW YORK/CONNECTICUT GETTING TO THE AIRPORTS BEFORE 
DISSIPATING. WINDS SHOULD VEER SLIGHTLY TOWARD THE NORTHWEST WITH 
SUSTAINED SPEEDS OF 10 TO 15 KNOTS. WHILE WE CARRIED GUSTS THROUGH 
THE OVERNIGHT, THIS COULD BE MORE SPORADIC, INTERMITTENT, ESPECIALLY 
AT THE SMALLER TERMINALS/AIRPORTS.  

FRIDAY...VFR WITH JUST SOME HIGH BASED CUMULUS CLOUDS. NORTHWEST 
WINDS WILL INCREASE WITH SUSTAINED SPEEDS 15 TO 20 KTS AND PEAK 
GUSTS TO AROUND 30 KNOTS. IN THE 30 HOUR TAF SITES, EXPECT MOST PEAK 
WINDS TO OCCUR BY MID AFTERNOON WITH A DECREASE OF WINDS AND SPEEDS 
TOWARD EVENING (WE DROPPED THE GUSTINESS TOWARD THE END OF THOSE 
TAFS).

5 Day General Aviation Outlook:

.OUTLOOK FOR 18Z FRIDAY THROUGH MONDAY...
.FRI...VFR. NW WINDS G20-30KT.
.FRI NIGHT-SAT NIGHT...VFR.
.SUN...MAINLY VFR. 
.SUN NIGHT-MON...MVFR/IFR. POSSIBLY SUB-IFR. RA AND FG WITH LLWS 
POSSIBLE.


NY Metro Terminal Aviation Weather Summary: (Explanation of Color Coding)
NOTE: All Wind Directions are TRUE (add 13 degrees for magnetic directions). Tail and Crosswind Calculations do account for the magnetic deviation of runways.

Click on the Airport Below for Specific Information at that Terminal

TAF Overview JFK TAF LGA TAF EWR TAF TEB TAF HPN TAF ISP TAF

Jump to AirSpace Impacts Section Condensed "lite" version of SPA page
**************************************************************************************
KJFK Terminal Weather: (Wind Directions Are True, Except Where Noted, ADD 13 degrees for Magnetic)

5MIN KJFK 202045Z 25016G25KT 10SM CLR 08/M04 A2986 70 
     41 -700 270/16G25 RMK AO2 PK WND 26026/2024 SLP112 T00781044 58024
5MIN KJFK 202040Z 26018G25KT 10SM CLR 08/M04 A2986 70 
     41 -700 270/18G25 RMK AO2 PK WND 26026/2024
********************************************
****        MAGNETIC DIRECTIONS         ****
********************************************
KJFK 11/20/2014 20:57:00 GMT 280 15 G21KT
KJFK 11/20/2014 20:55:00 GMT 270 15 KT
KJFK 11/20/2014 20:53:00 GMT 270 17 KT
KJFK 11/20/2014 20:51:00 GMT 260 17 KT
KJFK 11/20/2014 20:49:00 GMT 260 20 KT
KJFK 11/20/2014 20:46:59 GMT 260 18 G27KT
KJFK 11/20/2014 20:44:59 GMT 260 15 G27KT
KJFK 11/20/2014 20:42:59 GMT 250 13 G27KT
KJFK 11/20/2014 20:40:59 GMT 260 19 G27KT
KJFK 11/20/2014 20:38:59 GMT 270 20 G27KT
SAUS70 KJFK 202100
METAR KJFK 202051Z 26017G24KT 10SM FEW050 08/M04 A2986 RMK AO2 PK WND
     26026/2024 SLP112 T00781044 55006
FTNA35 KJFK 202045 RRB
KJFK 202037Z 2021/2124 27016G28KT P6SM FEW050
     FM210000 28015G24KT P6SM FEW080
     FM211400 31020G31KT P6SM FEW050
     FM212300 31014KT P6SM SKC
KJFK FCSTER COMMENTS: HIGH CONFIDENCE CATEGORY FORECAST. MODERATE 
CONFIDENCE WIND FORECAST. CONFIDENCE REDUCTION IS DUE TO PEAK GUSTS 
THIS AFTERNOON. GUSTS COULD BE INTERMITTENT TONIGHT.

jfk

JFK Hourly Forecast Temperature (C)

JFK Hourly TMPS
**************************************************************************************
KLGA Terminal Weather: (Wind Directions Are True, Except Where Noted, ADD 13 degrees for Magnetic)

5MIN KLGA 202045Z 27014G21KT 10SM SCT060 SCT250 07/M06 
     A2985 90 40 -700 280/14G21 RMK AO2 PK WND 28027/1953 SLP108 T00721056 58024
5MIN KLGA 202040Z 27014G24KT 10SM SCT055 SCT250 07/M06 
     A2985 90 41 -800 280/14G24 RMK AO2 PK WND 28027/1953
********************************************
****        MAGNETIC DIRECTIONS         ****
********************************************
KLGA 11/20/2014 20:57:55 GMT 290 18 G26KT
KLGA 11/20/2014 20:55:55 GMT 300 22 G26KT
KLGA 11/20/2014 20:53:55 GMT 290 18 G22KT
KLGA 11/20/2014 20:51:54 GMT 270 16 G22KT
KLGA 11/20/2014 20:49:54 GMT 290 19 KT
KLGA 11/20/2014 20:47:54 GMT 290 15 G21KT
KLGA 11/20/2014 20:45:54 GMT 290 16 G21KT
KLGA 11/20/2014 20:43:54 GMT 280 14 G21KT
KLGA 11/20/2014 20:41:54 GMT 290 14 G21KT
KLGA 11/20/2014 20:39:54 GMT 280 15 G26KT
SAUS70 KLGA 202100
METAR KLGA 202051Z 26014G22KT 10SM SCT060 SCT250 07/M06 A2985 RMK AO2 PK
     WND 28027/1953 SLP108 T00721061 55004
FTUS31 KLGA 202039 AAA
KLGA 202037Z 2021/2118 27019G28KT P6SM FEW050
     FM210000 28015G23KT P6SM FEW080
     FM211400 30020G30KT P6SM FEW050
KLGA FCSTER COMMENTS: HIGH CONFIDENCE CATEGORY FORECAST. MODERATE 
CONFIDENCE WIND FORECAST. CONFIDENCE REDUCTION IS DUE TO PEAK GUSTS 
THIS AFTERNOON. GUSTS COULD BE INTERMITTENT TONIGHT.

lga


**************************************************************************************

KEWR Terminal Weather: (Wind Directions Are True, Except Where Noted, ADD 13 degrees for Magnetic)

5MIN KEWR 202045Z 25016G24KT 10SM FEW060 07/M07 A2986 
     80 36 -700 260/16G24 RMK AO2 PK WND 26027/2029 SLP110 T00721067 58026 $
5MIN KEWR 202040Z 25018G24KT 10SM SCT050 07/M06 A2986 
     80 38 -700 270/18G24 RMK AO2 PK WND 26027/2029 $
********************************************
****        MAGNETIC DIRECTIONS         ****
********************************************
KEWR 11/20/2014 20:57:39 GMT 260 14 G24KT
KEWR 11/20/2014 20:55:39 GMT 280 15 G24KT
KEWR 11/20/2014 20:53:39 GMT 290 16 G24KT
KEWR 11/20/2014 20:51:39 GMT 280 15 G24KT
KEWR 11/20/2014 20:49:39 GMT 270 16 G24KT
KEWR 11/20/2014 20:47:39 GMT 280 16 G26KT
KEWR 11/20/2014 20:45:39 GMT 270 14 G26KT
KEWR 11/20/2014 20:43:39 GMT 270 14 G26KT
KEWR 11/20/2014 20:41:39 GMT 270 17 G26KT
KEWR 11/20/2014 20:39:39 GMT 270 19 G26KT
SAUS70 KEWR 202100 RRA
METAR KEWR 202051Z 25019G28KT 10SM FEW060 07/M07 A2986 RMK AO2 PK WND
     26028/2047 SLP110 T00721067 55004 $
FTUS31 KEWR 202039 AAA
KEWR 202037Z 2021/2124 25018G28KT P6SM FEW050
     FM210000 28013G21KT P6SM FEW080
     FM211400 30019G28KT P6SM FEW050
     FM212200 29012KT P6SM SKC
KEWR FCSTER COMMENTS: HIGH CONFIDENCE CATEGORY FORECAST. MODERATE 
CONFIDENCE WIND FORECAST. CONFIDENCE REDUCTION IS DUE TO PEAK GUSTS 
THIS AFTERNOON. GUSTS COULD BE INTERMITTENT TONIGHT.

ewr
Afternoon EWR Haze Potential Forecast: KEWR Haze Forecast Not Available at This Time
IS NOT AVAILABLE AT THIS TIME


******************************************************************************

KTEB Terminal Weather:
SAUS80 KTEB 202100
METAR KTEB 202051Z 24018G26KT 10SM SCT065 07/M08 A2985 RMK AO2 PK WND
     26026/2049 SLP107 T00671078 55003
FTUS31 KTEB 202039 AAA
KTEB 202037Z 2021/2118 26015G26KT P6SM FEW060
     FM202300 28012G19KT P6SM FEW080
     FM211400 31016G26KT P6SM SCT050
KTEB FCSTER COMMENTS: HIGH CONFIDENCE CATEGORY FORECAST. MODERATE 
CONFIDENCE WIND FORECAST. CONFIDENCE REDUCTION IS DUE TO PEAK GUSTS 
THIS AFTERNOON. GUSTS COULD BE INTERMITTENT TONIGHT.

teb

 


**************************************************************************************

KHPN Terminal Weather:
SAUS70 KHPN 202000 RRC
METAR KHPN 201956Z 26010G17KT 10SM SCT040 06/M07 A2981 RMK AO2 PK WND
     24026/1946 SLP100 T00611072
FTUS41 KHPN 202039 AAA
KHPN 202037Z 2021/2118 26014G24KT P6SM SCT045
     FM202300 29011G18KT P6SM FEW080
     FM211400 30017G27KT P6SM SCT050 AMD NOT SKED
KHPN FCSTER COMMENTS: HIGH CONFIDENCE CATEGORY FORECAST. MODERATE 
CONFIDENCE WIND FORECAST. CONFIDENCE REDUCTION IS DUE TO PEAK GUSTS 
THIS AFTERNOON. GUSTS COULD BE INTERMITTENT TONIGHT.
 
HPN


******************************************************************************

KISP Terminal Weather:
SAUS70 KISP 202000 RRD
METAR KISP 201956Z 25016G26KT 10SM FEW055 08/M05 A2983 RMK AO2 PK WND
     26030/1912 SLP101 T00781050
FTUS80 KISP 202039 AAB
KISP 202037Z 2021/2118 25015G26KT P6SM FEW050
     FM210000 28012G19KT P6SM FEW080
     FM211400 30018G27KT P6SM FEW060
KISP FCSTER COMMENTS: HIGH CONFIDENCE CATEGORY FORECAST. MODERATE 
CONFIDENCE WIND FORECAST. CONFIDENCE REDUCTION IS DUE TO PEAK GUSTS 
THIS AFTERNOON. GUSTS COULD BE INTERMITTENT TONIGHT.

ISP

 


ZNY SWAP Season Information

(ZNY SWAP STATEMENT) (Click for PDF File) (ZNY BRIEFING) (Click for PDF File)

*******************************************************
***        NY AIR ROUTE TRAFFIC CONTROL CENTER      ***
***                DAILY SWAP STATEMENT             ***
*******************************************************
NY AIR ROUTE TRAFFIC CONTROL CENTER
DAILY SWAP STATEMENT
SUNDAY OCTOBER 26, 2014
ROUTINE SWAP STATEMENTS ARE ISSUED 
BETWEEN APRIL 1 AND SEPTEMBER 30.
SWAP STATEMENTS WILL BE ISSUED IF TS ARE 
EXPECTED TO IMPACT OPERATIONS.
$$



N90 AirSpace Impacts

N90 Compression Forecast

N90 Compression Forecast

N90 Icing Forecast

N90 Icing Forecast

N90 Thunderstorm Forecast (Issued if Expected)

N90 Day 2 SWAP Outlook

 

Surface Weather Map

Surface Weather map

National Collaborative Convective Forecast Product (CCFP) Forecasts (Mar-Oct)


Vertical Wind Profile
Untitled Document